createdAt,value
2018-07-03T00:04:13.291Z,15.50
2018-07-03T00:06:41.801Z,15.50
2018-07-03T00:09:10.799Z,15.40
2018-07-03T00:14:07.801Z,15.40
2018-07-03T00:16:41.619Z,15.20
2018-07-03T00:19:10.152Z,15.20
2018-07-03T00:24:07.002Z,15.20
2018-07-03T00:26:35.461Z,15.20
2018-07-03T00:29:04.103Z,15.10
2018-07-03T00:31:32.563Z,15.20
2018-07-03T00:34:01.235Z,15.20
2018-07-03T00:36:29.702Z,15.30
2018-07-03T00:38:58.230Z,15.30
2018-07-03T00:41:26.890Z,15.20
2018-07-03T00:43:55.571Z,15.20
2018-07-03T00:46:24.067Z,15.10
2018-07-03T00:48:52.538Z,15.10
2018-07-03T00:51:21.178Z,15.10
2018-07-03T00:53:49.681Z,14.90
2018-07-03T00:56:18.368Z,14.80
2018-07-03T00:58:46.818Z,14.80
2018-07-03T01:01:15.447Z,14.60
2018-07-03T01:03:43.965Z,14.60
2018-07-03T01:06:12.639Z,14.60
2018-07-03T01:08:41.119Z,14.60
2018-07-03T01:11:09.880Z,14.50
2018-07-03T01:13:38.619Z,14.40
2018-07-03T01:16:07.122Z,14.40
2018-07-03T01:18:35.692Z,14.40
2018-07-03T01:21:04.298Z,14.40
2018-07-03T01:23:32.830Z,14.30
2018-07-03T01:26:01.323Z,14.30
2018-07-03T01:28:29.995Z,14.30
2018-07-03T01:30:58.591Z,14.30
2018-07-03T01:33:27.258Z,14.30
2018-07-03T01:35:55.706Z,14.20
2018-07-03T01:38:24.474Z,14.20
2018-07-03T01:40:52.921Z,14.10
2018-07-03T01:43:21.395Z,14.00
2018-07-03T01:45:49.922Z,14.00
2018-07-03T01:48:18.374Z,14.00
2018-07-03T01:50:46.890Z,14.00
2018-07-03T01:53:15.401Z,13.90
2018-07-03T01:58:12.426Z,14.00
2018-07-03T02:00:41.142Z,13.90
2018-07-03T02:03:09.643Z,13.80
2018-07-03T02:05:38.186Z,13.80
2018-07-03T02:08:06.783Z,13.80
2018-07-03T02:10:35.278Z,13.80
2018-07-03T02:13:03.858Z,13.80
2018-07-03T02:15:32.405Z,13.80
2018-07-03T02:18:01.102Z,13.90
2018-07-03T02:20:29.595Z,13.90
2018-07-03T02:22:58.178Z,13.90
2018-07-03T02:25:26.755Z,13.80
2018-07-03T02:27:55.318Z,13.80
2018-07-03T02:30:23.891Z,13.80
2018-07-03T02:32:52.553Z,13.70
2018-07-03T02:35:21.031Z,13.70
2018-07-03T02:37:49.491Z,13.60
2018-07-03T02:40:18.232Z,13.60
2018-07-03T02:42:46.703Z,13.60
2018-07-03T02:45:15.326Z,13.50
2018-07-03T02:47:43.927Z,13.60
2018-07-03T02:50:12.488Z,13.60
2018-07-03T02:52:40.985Z,13.40
2018-07-03T02:55:09.598Z,13.40
2018-07-03T02:57:38.114Z,13.30
2018-07-03T03:00:06.983Z,13.30
2018-07-03T03:02:35.650Z,13.30
2018-07-03T03:05:04.480Z,13.30
2018-07-03T03:07:33.088Z,13.20
2018-07-03T03:10:01.615Z,13.20
2018-07-03T03:12:30.079Z,13.10
2018-07-03T03:14:58.719Z,13.10
2018-07-03T03:17:27.247Z,13.10
2018-07-03T03:19:55.874Z,13.00
2018-07-03T03:22:24.484Z,13.10
2018-07-03T03:24:52.938Z,13.20
2018-07-03T03:27:21.575Z,13.10
2018-07-03T03:29:50.218Z,13.00
2018-07-03T03:32:18.740Z,13.10
2018-07-03T03:34:47.247Z,13.00
2018-07-03T03:37:16.019Z,13.00
2018-07-03T03:39:44.504Z,12.80
2018-07-03T03:42:13.013Z,12.80
2018-07-03T03:44:41.527Z,12.80
2018-07-03T03:47:10.008Z,12.90
2018-07-03T03:49:38.642Z,12.80
2018-07-03T03:52:07.162Z,12.80
2018-07-03T03:54:35.882Z,12.80
2018-07-03T03:57:04.382Z,12.80
2018-07-03T03:59:33.042Z,12.80
2018-07-03T04:02:01.550Z,12.70
2018-07-03T04:06:58.323Z,12.70
2018-07-03T04:09:26.794Z,12.70
2018-07-03T04:11:55.267Z,12.70
2018-07-03T04:14:23.842Z,12.80
2018-07-03T04:16:52.434Z,12.80
2018-07-03T04:19:20.931Z,12.90
2018-07-03T04:21:49.466Z,13.00
2018-07-03T04:24:17.981Z,13.00
2018-07-03T04:26:46.531Z,13.10
2018-07-03T04:29:15.154Z,13.10
2018-07-03T04:31:43.635Z,13.20
2018-07-03T04:34:12.340Z,13.20
2018-07-03T04:36:40.951Z,13.30
2018-07-03T04:39:10.571Z,13.30
2018-07-03T04:41:39.396Z,13.40
2018-07-03T04:44:08.048Z,13.40
2018-07-03T04:46:36.732Z,13.50
2018-07-03T04:49:05.232Z,13.50
2018-07-03T04:51:34.100Z,13.60
2018-07-03T04:54:02.594Z,13.70
2018-07-03T04:56:31.081Z,13.70
2018-07-03T04:58:59.531Z,13.80
2018-07-03T05:01:28.131Z,13.90
2018-07-03T05:03:56.718Z,13.90
2018-07-03T05:06:25.183Z,13.90
2018-07-03T05:08:53.739Z,14.00
2018-07-03T05:11:22.367Z,14.10
2018-07-03T05:13:51.303Z,14.20
2018-07-03T05:16:19.771Z,14.20
2018-07-03T05:18:48.535Z,14.30
2018-07-03T05:21:17.215Z,14.30
2018-07-03T05:23:45.862Z,14.40
2018-07-03T05:26:14.379Z,14.40
2018-07-03T05:28:42.867Z,14.50
2018-07-03T05:31:11.509Z,14.50
2018-07-03T05:33:39.983Z,14.60
2018-07-03T05:36:08.638Z,14.70
2018-07-03T05:38:37.301Z,14.70
2018-07-03T05:41:06.167Z,14.80
2018-07-03T05:43:34.758Z,14.90
2018-07-03T05:46:03.809Z,15.00
2018-07-03T05:48:32.287Z,15.00
2018-07-03T05:51:00.779Z,15.10
2018-07-03T05:53:29.510Z,15.10
2018-07-03T05:55:58.086Z,15.20
2018-07-03T06:00:54.812Z,15.40
2018-07-03T06:03:23.290Z,15.40
2018-07-03T06:05:51.823Z,15.50
2018-07-03T06:08:20.319Z,15.60
2018-07-03T06:10:49.022Z,15.70
2018-07-03T06:13:17.547Z,15.80
2018-07-03T06:15:46.146Z,15.90
2018-07-03T06:18:14.650Z,15.90
2018-07-03T06:20:44.227Z,16.00
2018-07-03T06:23:12.693Z,16.10
2018-07-03T06:25:41.211Z,16.10
2018-07-03T06:28:09.667Z,16.20
2018-07-03T06:30:38.148Z,16.30
2018-07-03T06:33:06.693Z,16.40
2018-07-03T06:35:35.331Z,16.50
2018-07-03T06:38:04.047Z,16.60
2018-07-03T06:40:32.555Z,16.80
2018-07-03T06:43:01.042Z,16.90
2018-07-03T06:45:29.510Z,17.00
2018-07-03T06:47:58.222Z,17.20
2018-07-03T06:50:27.019Z,17.30
2018-07-03T06:52:55.650Z,17.60
2018-07-03T06:55:24.129Z,17.70
2018-07-03T06:57:52.739Z,17.90
2018-07-03T07:00:21.353Z,18.10
2018-07-03T07:02:49.992Z,18.20
2018-07-03T07:05:18.479Z,18.40
2018-07-03T07:07:47.071Z,18.40
2018-07-03T07:10:15.546Z,18.60
2018-07-03T07:12:44.220Z,18.70
2018-07-03T07:15:12.698Z,18.80
2018-07-03T07:17:41.327Z,18.90
2018-07-03T07:20:09.879Z,19.00
2018-07-03T07:22:38.484Z,19.00
2018-07-03T07:25:07.068Z,19.10
2018-07-03T07:27:35.547Z,19.10
2018-07-03T07:30:04.894Z,19.20
2018-07-03T07:32:33.434Z,19.30
2018-07-03T07:35:01.995Z,19.40
2018-07-03T07:37:30.542Z,19.50
2018-07-03T07:39:59.034Z,19.70
2018-07-03T07:42:27.766Z,19.80
2018-07-03T07:44:56.239Z,19.90
2018-07-03T07:47:24.725Z,20.00
2018-07-03T07:52:21.389Z,20.10
2018-07-03T07:54:49.905Z,20.20
2018-07-03T07:57:18.399Z,20.30
2018-07-03T07:59:46.970Z,20.30
2018-07-03T08:02:15.502Z,20.40
2018-07-03T08:04:43.987Z,20.40
2018-07-03T08:07:12.459Z,20.60
2018-07-03T08:09:40.938Z,20.70
2018-07-03T08:12:09.463Z,20.80
2018-07-03T08:14:37.979Z,20.80
2018-07-03T08:17:06.711Z,21.00
2018-07-03T08:19:35.176Z,21.00
2018-07-03T08:22:03.717Z,21.10
2018-07-03T08:24:32.302Z,21.10
2018-07-03T08:27:00.974Z,21.20
2018-07-03T08:29:29.553Z,21.10
2018-07-03T08:31:58.080Z,21.30
2018-07-03T08:34:26.621Z,21.50
2018-07-03T08:36:55.155Z,21.60
2018-07-03T08:39:24.024Z,21.70
2018-07-03T08:41:52.639Z,21.80
2018-07-03T08:44:21.103Z,21.90
2018-07-03T08:46:49.763Z,22.00
2018-07-03T08:49:18.230Z,22.00
2018-07-03T08:51:47.009Z,22.10
2018-07-03T08:54:15.979Z,22.00
2018-07-03T08:56:44.475Z,22.10
2018-07-03T08:59:12.989Z,22.20
2018-07-03T09:01:41.474Z,22.30
2018-07-03T09:04:10.147Z,22.20
2018-07-03T09:06:38.635Z,22.30
2018-07-03T09:09:09.307Z,22.40
2018-07-03T09:11:37.881Z,22.50
2018-07-03T09:14:06.843Z,22.70
2018-07-03T09:16:35.582Z,22.70
2018-07-03T09:19:04.055Z,22.80
2018-07-03T09:21:32.796Z,23.00
2018-07-03T09:24:01.467Z,23.00
2018-07-03T09:26:29.982Z,23.00
2018-07-03T09:28:58.642Z,23.10
2018-07-03T09:31:27.227Z,23.10
2018-07-03T09:33:56.036Z,23.20
2018-07-03T09:36:24.584Z,23.30
2018-07-03T09:38:53.171Z,23.50
2018-07-03T09:41:21.884Z,23.40
2018-07-03T09:43:50.358Z,23.50
2018-07-03T09:46:18.955Z,23.60
2018-07-03T09:48:47.520Z,23.70
2018-07-03T09:51:16.074Z,23.80
2018-07-03T09:53:44.587Z,23.70
2018-07-03T09:56:13.240Z,23.80
2018-07-03T09:58:41.802Z,23.90
2018-07-03T10:01:15.650Z,23.80
2018-07-03T10:03:44.436Z,23.70
2018-07-03T10:06:13.139Z,23.50
2018-07-03T10:08:41.615Z,23.50
2018-07-03T10:11:10.230Z,23.50
2018-07-03T10:13:38.702Z,23.40
2018-07-03T10:16:07.575Z,23.40
2018-07-03T10:18:36.106Z,23.40
2018-07-03T10:21:04.707Z,23.40
2018-07-03T10:23:33.302Z,23.40
2018-07-03T10:26:01.920Z,23.40
2018-07-03T10:28:30.626Z,23.50
2018-07-03T10:30:59.194Z,23.20
2018-07-03T10:33:27.924Z,23.50
2018-07-03T10:35:56.555Z,23.50
2018-07-03T10:38:25.072Z,23.70
2018-07-03T10:40:53.678Z,23.80
2018-07-03T10:43:22.239Z,23.90
2018-07-03T10:45:50.815Z,24.00
2018-07-03T10:48:19.439Z,24.10
2018-07-03T10:50:47.909Z,24.10
2018-07-03T10:53:16.492Z,23.90
2018-07-03T10:55:45.037Z,23.70
2018-07-03T10:58:13.607Z,23.70
2018-07-03T11:00:42.092Z,24.00
2018-07-03T11:03:10.814Z,24.20
2018-07-03T11:05:39.418Z,24.20
2018-07-03T11:08:07.974Z,24.10
2018-07-03T11:10:36.672Z,24.00
2018-07-03T11:13:05.214Z,23.70
2018-07-03T11:15:33.908Z,24.00
2018-07-03T11:18:02.507Z,24.00
2018-07-03T11:20:31.115Z,23.70
2018-07-03T11:22:59.631Z,24.30
2018-07-03T11:25:28.541Z,24.50
2018-07-03T11:27:57.237Z,23.90
2018-07-03T11:30:25.761Z,24.20
2018-07-03T11:32:54.323Z,24.00
2018-07-03T11:35:22.886Z,24.20
2018-07-03T11:37:51.375Z,24.00
2018-07-03T11:40:19.983Z,24.50
2018-07-03T11:42:48.592Z,24.70
2018-07-03T11:45:17.131Z,24.30
2018-07-03T11:47:45.819Z,24.50
2018-07-03T11:50:14.507Z,24.60
2018-07-03T11:52:42.978Z,24.40
2018-07-03T11:55:11.658Z,24.60
2018-07-03T11:57:40.217Z,24.70
2018-07-03T12:00:08.933Z,24.60
2018-07-03T12:02:37.507Z,24.80
2018-07-03T12:05:06.242Z,24.70
2018-07-03T12:07:34.878Z,24.40
2018-07-03T12:10:03.593Z,24.60
2018-07-03T12:12:32.204Z,24.50
2018-07-03T12:15:00.700Z,24.40
2018-07-03T12:17:29.264Z,24.60
2018-07-03T12:19:57.840Z,24.80
2018-07-03T12:22:26.374Z,24.80
2018-07-03T12:24:54.896Z,24.90
2018-07-03T12:29:51.786Z,24.90
2018-07-03T12:32:20.443Z,25.10
2018-07-03T12:34:49.147Z,25.20
2018-07-03T12:37:17.694Z,25.00
2018-07-03T12:39:46.214Z,25.00
2018-07-03T12:42:14.711Z,24.90
2018-07-03T12:44:43.367Z,25.00
2018-07-03T12:47:11.882Z,25.10
2018-07-03T12:49:40.493Z,25.10
2018-07-03T12:52:09.048Z,25.00
2018-07-03T12:54:37.640Z,25.00
2018-07-03T12:57:06.240Z,24.60
2018-07-03T12:59:34.703Z,24.50
2018-07-03T13:02:03.348Z,24.70
2018-07-03T13:04:31.878Z,24.60
2018-07-03T13:07:00.394Z,24.60
2018-07-03T13:09:28.882Z,24.60
2018-07-03T13:11:57.574Z,24.60
2018-07-03T13:14:26.097Z,24.80
2018-07-03T13:16:54.823Z,24.90
2018-07-03T13:19:23.350Z,25.00
2018-07-03T13:21:51.919Z,24.90
2018-07-03T13:24:20.485Z,24.90
2018-07-03T13:26:48.979Z,25.00
2018-07-03T13:29:17.742Z,24.90
2018-07-03T13:31:46.289Z,25.00
2018-07-03T13:34:14.975Z,25.00
2018-07-03T13:36:43.464Z,25.00
2018-07-03T13:39:12.276Z,24.90
2018-07-03T13:41:40.895Z,25.00
2018-07-03T13:44:09.505Z,25.00
2018-07-03T13:46:38.055Z,24.90
2018-07-03T13:49:06.660Z,24.90
2018-07-03T13:51:35.139Z,24.80
2018-07-03T13:54:03.830Z,24.50
2018-07-03T13:56:32.476Z,24.60
2018-07-03T13:59:00.947Z,24.70
2018-07-03T14:01:29.479Z,24.70
2018-07-03T14:03:58.306Z,24.50
2018-07-03T14:06:26.843Z,24.70
2018-07-03T14:08:55.432Z,24.70
2018-07-03T14:11:24.010Z,24.50
2018-07-03T14:13:52.606Z,24.10
2018-07-03T14:16:21.162Z,24.20
2018-07-03T14:18:49.767Z,24.30
2018-07-03T14:21:18.287Z,24.30
2018-07-03T14:23:46.967Z,24.00
2018-07-03T14:26:15.635Z,23.80
2018-07-03T14:28:44.140Z,23.70
2018-07-03T14:31:12.785Z,23.80
2018-07-03T14:33:41.303Z,24.00
2018-07-03T14:36:10.496Z,23.90
2018-07-03T14:38:39.036Z,24.00
2018-07-03T14:41:07.552Z,24.20
2018-07-03T14:43:36.200Z,24.40
2018-07-03T14:46:05.033Z,24.60
2018-07-03T14:48:33.536Z,24.50
2018-07-03T14:51:02.008Z,24.70
2018-07-03T14:53:30.606Z,24.60
2018-07-03T14:55:59.226Z,24.70
2018-07-03T14:58:27.932Z,24.50
2018-07-03T15:00:56.630Z,24.40
2018-07-03T15:03:25.166Z,24.30
2018-07-03T15:05:53.866Z,24.20
2018-07-03T15:08:23.494Z,24.20
2018-07-03T15:10:52.159Z,23.80
2018-07-03T15:13:20.656Z,23.90
2018-07-03T15:15:49.166Z,24.00
2018-07-03T15:18:17.792Z,24.10
2018-07-03T15:20:46.327Z,24.10
2018-07-03T15:23:15.015Z,24.30
2018-07-03T15:25:43.512Z,24.30
2018-07-03T15:28:11.955Z,24.40
2018-07-03T15:30:40.522Z,24.30
2018-07-03T15:33:09.084Z,24.30
2018-07-03T15:35:37.575Z,24.20
2018-07-03T15:38:06.092Z,24.20
2018-07-03T15:40:34.584Z,24.20
2018-07-03T15:43:03.206Z,24.20
2018-07-03T15:45:31.770Z,24.30
2018-07-03T15:48:00.360Z,24.40
2018-07-03T15:50:28.886Z,24.40
2018-07-03T15:52:57.519Z,24.40
2018-07-03T15:55:26.026Z,24.40
2018-07-03T15:57:54.592Z,24.30
2018-07-03T16:00:23.103Z,24.30
2018-07-03T16:03:02.732Z,24.30
2018-07-03T16:06:17.588Z,24.30
2018-07-03T16:08:57.879Z,24.10
2018-07-03T16:11:26.412Z,24.10
2018-07-03T16:13:55.027Z,23.90
2018-07-03T16:16:23.542Z,23.90
2018-07-03T16:18:52.187Z,23.80
2018-07-03T16:21:20.752Z,23.90
2018-07-03T16:23:49.263Z,24.10
2018-07-03T16:26:17.898Z,24.30
2018-07-03T16:28:46.492Z,24.30
2018-07-03T16:31:15.200Z,24.00
2018-07-03T16:33:43.783Z,24.00
2018-07-03T16:36:12.490Z,24.20
2018-07-03T16:38:41.054Z,24.30
2018-07-03T16:41:09.564Z,23.90
2018-07-03T16:43:38.076Z,23.80
2018-07-03T16:46:06.810Z,24.00
2018-07-03T16:48:35.426Z,24.20
2018-07-03T16:51:04.187Z,24.20
2018-07-03T16:53:32.708Z,24.30
2018-07-03T16:56:01.376Z,24.20
2018-07-03T16:58:29.925Z,23.90
2018-07-03T17:00:58.463Z,24.00
2018-07-03T17:03:27.043Z,24.00
2018-07-03T17:05:55.777Z,24.00
2018-07-03T17:08:24.380Z,23.70
2018-07-03T17:10:53.058Z,24.00
2018-07-03T17:13:21.644Z,24.00
2018-07-03T17:15:50.350Z,24.20
2018-07-03T17:18:19.056Z,24.20
2018-07-03T17:20:47.721Z,24.30
2018-07-03T17:23:16.363Z,24.20
2018-07-03T17:25:45.067Z,24.10
2018-07-03T17:28:14.011Z,24.10
2018-07-03T17:30:42.535Z,24.10
2018-07-03T17:33:11.087Z,24.00
2018-07-03T17:35:39.799Z,24.00
2018-07-03T17:38:08.423Z,24.00
2018-07-03T17:40:48.191Z,24.00
2018-07-03T17:44:10.670Z,24.10
2018-07-03T17:46:39.173Z,24.10
2018-07-03T17:49:08.167Z,24.10
2018-07-03T17:51:37.152Z,24.00
2018-07-03T17:54:06.022Z,23.90
2018-07-03T17:56:34.543Z,24.00
2018-07-03T17:59:03.417Z,24.00
2018-07-03T18:01:32.108Z,24.00
2018-07-03T18:04:00.734Z,24.00
2018-07-03T18:06:29.393Z,23.90
2018-07-03T18:08:57.930Z,23.80
2018-07-03T18:11:26.539Z,23.50
2018-07-03T18:13:55.082Z,23.40
2018-07-03T18:16:23.708Z,23.50
2018-07-03T18:18:57.697Z,23.40
2018-07-03T18:21:26.223Z,23.30
2018-07-03T18:23:54.898Z,23.20
2018-07-03T18:26:23.468Z,23.20
2018-07-03T18:28:52.272Z,23.40
2018-07-03T18:31:20.878Z,23.60
2018-07-03T18:33:49.494Z,23.50
2018-07-03T18:36:18.249Z,23.70
2018-07-03T18:38:46.916Z,23.80
2018-07-03T18:41:15.458Z,23.60
2018-07-03T18:43:43.991Z,23.40
2018-07-03T18:46:12.687Z,23.40
2018-07-03T18:48:41.348Z,23.40
2018-07-03T18:51:09.939Z,23.20
2018-07-03T18:53:38.508Z,23.20
2018-07-03T18:56:07.327Z,23.20
2018-07-03T18:58:35.885Z,23.10
2018-07-03T19:01:04.545Z,22.90
2018-07-03T19:03:33.094Z,22.80
2018-07-03T19:06:01.668Z,22.80
2018-07-03T19:08:30.320Z,22.70
2018-07-03T19:10:59.159Z,22.70
2018-07-03T19:13:27.722Z,22.60
2018-07-03T19:15:56.263Z,22.60
2018-07-03T19:18:24.842Z,22.50
2018-07-03T19:20:53.393Z,22.50
2018-07-03T19:23:21.952Z,22.40
2018-07-03T19:25:50.472Z,22.30
2018-07-03T19:28:19.098Z,22.20
2018-07-03T19:30:47.707Z,22.20
2018-07-03T19:33:16.336Z,22.10
2018-07-03T19:35:45.117Z,22.10
2018-07-03T19:38:13.688Z,22.00
2018-07-03T19:40:42.403Z,21.90
2018-07-03T19:43:28.297Z,21.90
2018-07-03T19:45:57.642Z,21.80
2018-07-03T19:48:26.264Z,21.70
2018-07-03T19:50:55.079Z,21.70
2018-07-03T19:53:23.671Z,21.60
2018-07-03T19:55:53.549Z,21.50
2018-07-03T19:58:22.741Z,21.50
2018-07-03T20:00:52.607Z,21.40
2018-07-03T20:03:21.450Z,21.30
2018-07-03T20:05:50.130Z,21.20
2018-07-03T20:08:18.878Z,21.20
2018-07-03T20:10:47.418Z,21.10
2018-07-03T20:13:17.195Z,21.00
2018-07-03T20:15:45.757Z,21.00
2018-07-03T20:18:15.376Z,20.90
2018-07-03T20:20:44.063Z,20.90
2018-07-03T20:23:12.598Z,20.80
2018-07-03T20:25:41.181Z,20.80
2018-07-03T20:28:09.867Z,20.60
2018-07-03T20:30:38.491Z,20.70
2018-07-03T20:35:35.243Z,20.60
2018-07-03T20:38:04.949Z,20.50
2018-07-03T20:41:06.905Z,20.50
2018-07-03T20:43:36.861Z,20.40
2018-07-03T20:46:05.923Z,20.40
2018-07-03T20:48:34.549Z,20.30
2018-07-03T21:02:48.714Z,20.20
2018-07-03T21:05:17.303Z,20.10
2018-07-03T21:07:46.011Z,20.10
2018-07-03T21:10:14.502Z,20.10
2018-07-03T21:12:43.024Z,20.00
2018-07-03T21:15:11.619Z,20.00
2018-07-03T21:17:40.217Z,20.00
2018-07-03T21:20:08.791Z,19.90
2018-07-03T21:22:37.595Z,19.90
2018-07-03T21:25:06.240Z,19.90
2018-07-03T21:27:34.728Z,19.80
2018-07-03T21:30:03.368Z,19.80
2018-07-03T21:32:31.882Z,19.80
2018-07-03T21:35:00.418Z,19.80
2018-07-03T21:37:29.034Z,19.60
2018-07-03T21:39:57.515Z,19.60
2018-07-03T21:42:26.035Z,19.50
2018-07-03T21:44:54.599Z,19.50
2018-07-03T21:47:23.264Z,19.50
2018-07-03T21:49:51.843Z,19.50
2018-07-03T21:52:20.335Z,19.40
2018-07-03T21:54:48.916Z,19.30
2018-07-03T21:57:17.657Z,19.30
2018-07-03T21:59:46.147Z,19.30
2018-07-03T22:02:14.634Z,19.40
2018-07-03T22:04:43.225Z,19.40
2018-07-03T22:07:11.983Z,19.50
2018-07-03T22:09:40.692Z,19.50
2018-07-03T22:12:09.175Z,19.50
2018-07-03T22:14:39.623Z,19.50
2018-07-03T22:17:08.884Z,19.50
2018-07-03T22:19:37.358Z,19.50
2018-07-03T22:22:05.857Z,19.40
2018-07-03T22:24:35.014Z,19.30
2018-07-03T22:27:03.958Z,19.30
2018-07-03T22:29:32.727Z,19.30
2018-07-03T22:32:01.472Z,19.40
2018-07-03T22:34:30.203Z,19.40
2018-07-03T22:36:58.879Z,19.40
2018-07-03T22:41:55.532Z,19.30
2018-07-03T22:44:24.239Z,19.30
2018-07-03T22:46:52.803Z,19.20
2018-07-03T22:51:49.737Z,19.20
2018-07-03T22:54:18.299Z,19.20
2018-07-03T22:56:46.762Z,19.10
2018-07-03T22:59:15.266Z,19.10
2018-07-03T23:01:43.876Z,19.00
2018-07-03T23:04:12.478Z,18.90
2018-07-03T23:06:40.966Z,18.90
2018-07-03T23:09:09.459Z,18.80
2018-07-03T23:11:38.002Z,18.80
2018-07-03T23:14:06.504Z,18.70
2018-07-03T23:16:34.971Z,18.70
2018-07-03T23:19:03.574Z,18.60
2018-07-03T23:21:32.100Z,18.50
2018-07-03T23:24:00.617Z,18.50
2018-07-03T23:28:57.390Z,18.40
2018-07-03T23:31:25.859Z,18.40
2018-07-03T23:33:54.366Z,18.30
2018-07-03T23:36:22.961Z,18.20
2018-07-03T23:38:51.497Z,18.10
2018-07-03T23:41:19.987Z,18.10
2018-07-03T23:43:48.611Z,18.00
2018-07-03T23:46:28.336Z,17.90
2018-07-03T23:49:08.170Z,18.00
2018-07-03T23:51:47.855Z,18.00
2018-07-03T23:54:27.681Z,18.00
2018-07-03T23:57:07.379Z,17.90
2018-07-03T23:59:47.146Z,17.80
